createdAt,value
2019-02-20T00:00:57.946Z,84.82
2019-02-20T00:06:05.053Z,85.72
2019-02-20T00:11:10.238Z,85.29
2019-02-20T00:16:15.427Z,85.43
2019-02-20T00:21:20.629Z,84.79
2019-02-20T00:26:26.054Z,84.28
2019-02-20T00:31:31.258Z,84.54
2019-02-20T00:36:36.479Z,84.65
2019-02-20T00:41:41.997Z,84.98
2019-02-20T00:46:56.029Z,85.47
2019-02-20T00:52:13.571Z,85.31
2019-02-20T00:57:19.143Z,85.32
2019-02-20T01:02:24.367Z,85.05
2019-02-20T01:07:30.273Z,85.17
2019-02-20T01:12:35.454Z,85.23
2019-02-20T01:17:40.648Z,85.14
2019-02-20T01:22:46.173Z,85.01
2019-02-20T01:27:51.374Z,85.07
2019-02-20T01:32:56.819Z,84.91
2019-02-20T01:38:02.088Z,85.61
2019-02-20T01:43:07.607Z,85.88
2019-02-20T01:48:12.791Z,85.94
2019-02-20T01:53:20.051Z,85.90
2019-02-20T01:58:25.225Z,85.99
2019-02-20T02:03:30.406Z,85.75
2019-02-20T02:08:35.760Z,85.92
2019-02-20T02:13:41.256Z,85.77
2019-02-20T02:18:46.818Z,86.36
2019-02-20T02:23:52.773Z,86.58
2019-02-20T02:28:58.279Z,86.59
2019-02-20T02:34:03.463Z,86.22
2019-02-20T02:39:09.351Z,86.07
2019-02-20T02:44:14.617Z,85.86
2019-02-20T02:49:20.242Z,85.02
2019-02-20T02:54:25.839Z,85.13
2019-02-20T02:59:31.357Z,84.79
2019-02-20T03:04:36.541Z,84.97
2019-02-20T03:09:42.156Z,85.11
2019-02-20T03:14:47.339Z,85.31
2019-02-20T03:19:52.550Z,85.45
2019-02-20T03:24:57.780Z,85.57
2019-02-20T03:30:03.304Z,85.61
2019-02-20T03:35:09.440Z,85.67
2019-02-20T03:40:14.660Z,85.99
2019-02-20T03:45:20.202Z,86.31
2019-02-20T03:50:26.526Z,86.56
2019-02-20T03:55:32.051Z,86.50
2019-02-20T04:00:38.076Z,87.00
2019-02-20T04:05:43.271Z,86.94
2019-02-20T04:10:48.457Z,86.46
2019-02-20T04:15:54.741Z,86.28
2019-02-20T04:20:59.951Z,86.28
2019-02-20T04:26:05.451Z,86.23
2019-02-20T04:31:10.538Z,86.37
2019-02-20T04:36:15.759Z,86.31
2019-02-20T04:41:21.365Z,86.11
2019-02-20T04:46:27.437Z,86.20
2019-02-20T04:51:33.326Z,86.29
2019-02-20T04:56:38.492Z,86.02
2019-02-20T05:01:43.595Z,85.71
2019-02-20T05:06:48.687Z,85.85
2019-02-20T05:11:54.201Z,86.06
2019-02-20T05:16:59.398Z,86.18
2019-02-20T05:22:04.618Z,86.44
2019-02-20T05:27:10.047Z,86.54
2019-02-20T05:32:15.243Z,86.62
2019-02-20T05:37:20.830Z,86.55
2019-02-20T05:42:26.847Z,86.49
2019-02-20T05:47:32.219Z,86.28
2019-02-20T05:52:38.510Z,86.72
2019-02-20T05:57:43.928Z,85.93
2019-02-20T06:02:48.932Z,85.67
2019-02-20T06:07:54.439Z,85.44
2019-02-20T06:13:00.219Z,85.59
2019-02-20T06:18:05.803Z,85.54
2019-02-20T06:23:11.325Z,85.48
2019-02-20T06:28:16.772Z,85.81
2019-02-20T06:33:22.286Z,85.47
2019-02-20T06:38:27.308Z,85.47
2019-02-20T06:43:32.700Z,85.69
2019-02-20T06:48:38.112Z,85.81
2019-02-20T06:53:43.015Z,85.92
2019-02-20T06:58:48.239Z,85.79
2019-02-20T07:03:53.330Z,85.58
2019-02-20T07:09:22.863Z,85.40
2019-02-20T07:14:58.018Z,85.78
2019-02-20T07:20:21.943Z,85.70
2019-02-20T07:26:05.706Z,85.08
2019-02-20T07:31:10.879Z,85.00
2019-02-20T07:36:16.038Z,84.35
2019-02-20T07:41:21.193Z,83.78
2019-02-20T07:46:26.428Z,84.17
2019-02-20T07:51:32.625Z,84.67
2019-02-20T07:56:37.703Z,83.60
2019-02-20T08:01:43.029Z,83.00
2019-02-20T08:06:48.126Z,82.72
2019-02-20T08:11:53.224Z,82.63
2019-02-20T08:16:58.362Z,81.83
2019-02-20T08:22:03.491Z,81.02
2019-02-20T08:27:09.278Z,79.46
2019-02-20T08:32:14.693Z,79.10
2019-02-20T08:37:20.218Z,78.89
2019-02-20T08:42:25.630Z,78.09
2019-02-20T08:47:31.097Z,77.84
2019-02-20T08:52:36.694Z,77.05
2019-02-20T08:57:42.019Z,76.62
2019-02-20T09:02:47.176Z,76.08
2019-02-20T09:07:52.186Z,76.11
2019-02-20T09:12:57.941Z,75.53
2019-02-20T09:18:03.464Z,75.19
2019-02-20T09:23:10.127Z,74.61
2019-02-20T09:28:16.988Z,74.20
2019-02-20T09:33:22.971Z,73.80
2019-02-20T09:38:28.142Z,73.42
2019-02-20T09:43:33.302Z,72.94
2019-02-20T09:48:38.548Z,71.94
2019-02-20T09:53:43.715Z,69.80
2019-02-20T09:58:49.018Z,70.35
2019-02-20T10:03:54.209Z,69.71
2019-02-20T10:08:59.966Z,69.10
2019-02-20T10:14:05.210Z,69.22
2019-02-20T10:19:11.504Z,67.31
2019-02-20T10:24:17.633Z,68.60
2019-02-20T10:29:23.484Z,67.92
2019-02-20T10:34:29.011Z,68.02
2019-02-20T10:39:34.097Z,66.68
2019-02-20T10:44:39.190Z,67.74
2019-02-20T10:49:44.485Z,68.99
2019-02-20T10:54:57.414Z,69.22
2019-02-20T10:59:56.644Z,67.13
2019-02-20T11:05:01.814Z,67.45
2019-02-20T11:10:07.564Z,68.19
2019-02-20T11:15:13.410Z,68.83
2019-02-20T11:20:18.910Z,68.29
2019-02-20T11:25:24.150Z,67.24
2019-02-20T11:30:29.385Z,65.57
2019-02-20T11:35:34.567Z,64.21
2019-02-20T11:40:41.130Z,63.29
2019-02-20T11:45:46.368Z,61.92
2019-02-20T11:50:52.566Z,58.60
2019-02-20T11:55:57.796Z,58.85
2019-02-20T12:01:04.002Z,58.53
2019-02-20T12:06:10.429Z,57.83
2019-02-20T12:11:15.875Z,57.52
2019-02-20T12:16:21.103Z,58.52
2019-02-20T12:21:26.289Z,59.04
2019-02-20T12:26:35.154Z,59.11
2019-02-20T12:31:38.470Z,57.53
2019-02-20T12:36:43.758Z,58.01
2019-02-20T12:41:49.189Z,57.36
2019-02-20T12:46:54.556Z,59.19
2019-02-20T12:52:00.178Z,59.95
2019-02-20T12:57:08.073Z,57.10
2019-02-20T13:02:13.385Z,58.19
2019-02-20T13:07:18.792Z,57.99
2019-02-20T13:12:23.963Z,57.84
2019-02-20T13:17:29.735Z,57.60
2019-02-20T13:22:35.298Z,57.95
2019-02-20T13:27:40.550Z,57.23
2019-02-20T13:32:47.169Z,58.12
2019-02-20T13:37:52.365Z,58.19
2019-02-20T13:42:57.455Z,59.57
2019-02-20T13:48:02.696Z,59.92
2019-02-20T13:53:07.929Z,58.67
2019-02-20T13:58:13.967Z,59.47
2019-02-20T14:03:19.548Z,59.29
2019-02-20T14:08:24.779Z,59.30
2019-02-20T14:13:29.905Z,60.90
2019-02-20T14:18:35.361Z,59.88
2019-02-20T14:23:40.535Z,60.03
2019-02-20T14:28:45.963Z,59.54
2019-02-20T14:33:51.933Z,59.33
2019-02-20T14:38:57.376Z,58.77
2019-02-20T14:44:02.607Z,59.31
2019-02-20T14:49:09.480Z,58.82
2019-02-20T14:54:15.133Z,59.39
2019-02-20T14:59:20.355Z,60.11
2019-02-20T15:04:27.113Z,60.44
2019-02-20T15:09:32.677Z,60.19
2019-02-20T15:14:38.691Z,60.66
2019-02-20T15:19:45.124Z,61.00
2019-02-20T15:24:50.862Z,60.81
2019-02-20T15:29:56.715Z,62.07
2019-02-20T15:35:01.885Z,61.05
2019-02-20T15:40:08.304Z,61.74
2019-02-20T15:45:13.750Z,62.21
2019-02-20T15:50:18.981Z,62.36
2019-02-20T15:55:24.507Z,63.21
2019-02-20T16:00:29.769Z,63.62
2019-02-20T16:05:35.549Z,63.23
2019-02-20T16:10:40.789Z,63.02
2019-02-20T16:15:45.966Z,63.42
2019-02-20T16:20:51.232Z,63.80
2019-02-20T16:25:56.742Z,64.08
2019-02-20T16:31:02.170Z,64.74
2019-02-20T16:36:07.396Z,64.75
2019-02-20T16:41:13.401Z,64.52
2019-02-20T16:46:19.663Z,64.29
2019-02-20T16:51:24.914Z,65.27
2019-02-20T16:56:30.157Z,64.45
2019-02-20T17:01:35.954Z,64.07
2019-02-20T17:06:41.310Z,64.02
2019-02-20T17:11:46.804Z,63.63
2019-02-20T17:16:52.199Z,65.08
2019-02-20T17:21:58.213Z,64.09
2019-02-20T17:27:03.444Z,65.19
2019-02-20T17:32:08.785Z,64.89
2019-02-20T17:37:14.339Z,65.02
2019-02-20T17:42:19.847Z,65.50
2019-02-20T17:47:25.091Z,65.35
2019-02-20T17:52:30.267Z,65.73
2019-02-20T17:57:35.504Z,66.47
2019-02-20T18:02:40.830Z,67.26
2019-02-20T18:07:49.725Z,67.54
2019-02-20T18:12:52.959Z,67.90
2019-02-20T18:17:58.127Z,68.28
2019-02-20T18:23:03.455Z,68.75
2019-02-20T18:28:08.701Z,69.06
2019-02-20T18:33:13.879Z,69.51
2019-02-20T18:38:20.672Z,69.79
2019-02-20T18:43:27.572Z,70.14
2019-02-20T18:48:33.702Z,70.65
2019-02-20T18:53:39.203Z,70.68
2019-02-20T18:58:45.392Z,70.87
2019-02-20T19:03:51.664Z,71.83
2019-02-20T19:09:07.046Z,72.15
2019-02-20T19:14:19.707Z,72.36
2019-02-20T19:20:18.209Z,72.60
2019-02-20T19:26:08.353Z,72.68
2019-02-20T19:32:21.303Z,73.05
2019-02-20T19:37:47.742Z,72.81
2019-02-20T19:43:27.507Z,72.98
2019-02-20T19:48:59.009Z,72.97
2019-02-20T19:54:37.957Z,72.95
2019-02-20T20:00:09.945Z,72.86
2019-02-20T20:06:23.606Z,73.16
2019-02-20T20:12:27.186Z,72.98
2019-02-20T20:17:55.401Z,73.23
2019-02-20T20:23:32.468Z,73.41
2019-02-20T20:29:06.174Z,73.69
2019-02-20T20:34:47.224Z,74.01
2019-02-20T20:40:33.634Z,74.07
2019-02-20T20:45:48.931Z,74.44
2019-02-20T20:51:30.137Z,74.74
2019-02-20T20:57:04.982Z,75.06
2019-02-20T21:02:27.131Z,75.36
2019-02-20T21:08:03.394Z,76.05
2019-02-20T21:13:31.762Z,76.31
2019-02-20T21:19:21.553Z,76.62
2019-02-20T21:24:47.352Z,77.05
2019-02-20T21:29:59.252Z,76.84
2019-02-20T21:35:31.439Z,77.11
2019-02-20T21:40:55.006Z,77.50
2019-02-20T21:47:02.539Z,77.97
2019-02-20T21:53:04.097Z,78.25
2019-02-20T21:58:41.323Z,77.81
2019-02-20T22:04:33.472Z,77.76
2019-02-20T22:10:16.596Z,78.24
2019-02-20T22:15:59.963Z,78.35
2019-02-20T22:21:43.360Z,79.00
2019-02-20T22:27:29.281Z,78.99
2019-02-20T22:33:02.654Z,79.21
2019-02-20T22:38:56.349Z,79.34
2019-02-20T22:44:50.592Z,79.75
2019-02-20T22:50:48.256Z,80.24
2019-02-20T22:56:20.102Z,80.97
2019-02-20T23:01:51.851Z,80.99
2019-02-20T23:07:38.612Z,80.95
2019-02-20T23:13:22.377Z,81.04
2019-02-20T23:18:27.924Z,80.96
2019-02-20T23:23:33.869Z,81.81
2019-02-20T23:28:39.239Z,81.49
2019-02-20T23:33:45.117Z,81.58
2019-02-20T23:38:51.098Z,81.97
2019-02-20T23:43:56.592Z,82.44
2019-02-20T23:49:02.063Z,82.54
2019-02-20T23:54:07.909Z,82.60
2019-02-20T23:59:14.318Z,83.07
